createdAt,value
2016-10-05T00:01:09.135Z,0
2016-10-05T00:02:18.848Z,0
2016-10-05T00:03:29.127Z,0
2016-10-05T00:04:39.103Z,0
2016-10-05T00:05:49.407Z,0
2016-10-05T00:06:59.387Z,0
2016-10-05T00:08:09.682Z,0
2016-10-05T00:09:19.970Z,0
2016-10-05T00:10:30.253Z,0
2016-10-05T00:11:40.235Z,0
2016-10-05T00:12:50.208Z,0
2016-10-05T00:13:59.874Z,0
2016-10-05T00:15:09.849Z,0
2016-10-05T00:16:20.137Z,0
2016-10-05T00:17:30.118Z,0
2016-10-05T00:18:40.096Z,0
2016-10-05T00:19:50.392Z,0
2016-10-05T00:21:00.674Z,0
2016-10-05T00:22:10.962Z,0
2016-10-05T00:23:21.262Z,0
2016-10-05T00:24:31.233Z,0
2016-10-05T00:25:41.205Z,0
2016-10-05T00:26:51.504Z,0
2016-10-05T00:28:01.482Z,0
2016-10-05T00:29:11.765Z,0
2016-10-05T00:30:21.737Z,0
2016-10-05T00:31:32.023Z,0
2016-10-05T00:32:41.375Z,0
2016-10-05T00:33:51.042Z,0
2016-10-05T00:35:01.073Z,0
2016-10-05T00:36:11.045Z,0
2016-10-05T00:37:21.328Z,0
2016-10-05T00:38:31.323Z,0
2016-10-05T00:39:41.639Z,0
2016-10-05T00:40:51.614Z,0
2016-10-05T00:42:01.278Z,0
2016-10-05T00:43:11.252Z,0
2016-10-05T00:44:21.553Z,0
2016-10-05T00:45:31.884Z,0
2016-10-05T00:46:41.861Z,0
2016-10-05T00:47:52.148Z,0
2016-10-05T00:49:02.453Z,0
2016-10-05T00:50:12.419Z,0
2016-10-05T00:51:22.097Z,0
2016-10-05T00:52:32.072Z,0
2016-10-05T00:53:42.380Z,0
2016-10-05T00:54:52.654Z,0
2016-10-05T00:56:02.319Z,0
2016-10-05T00:57:12.606Z,0
2016-10-05T00:58:22.880Z,0
2016-10-05T00:59:33.161Z,0
2016-10-05T01:00:42.528Z,0
2016-10-05T01:01:52.504Z,0
2016-10-05T01:03:02.177Z,0
2016-10-05T01:04:12.161Z,0
2016-10-05T01:05:22.158Z,0
2016-10-05T01:06:32.145Z,0
2016-10-05T01:07:42.136Z,0
2016-10-05T01:08:52.423Z,0
2016-10-05T01:10:02.420Z,0
2016-10-05T01:11:12.708Z,0
2016-10-05T01:12:22.677Z,0
2016-10-05T01:13:32.946Z,0
2016-10-05T01:14:43.241Z,0
2016-10-05T01:15:53.222Z,0
2016-10-05T01:17:03.202Z,0
2016-10-05T01:18:13.174Z,0
2016-10-05T01:19:23.469Z,0
2016-10-05T01:20:33.746Z,0
2016-10-05T01:21:44.026Z,0
2016-10-05T01:22:53.699Z,0
2016-10-05T01:24:03.374Z,0
2016-10-05T01:25:13.042Z,0
2016-10-05T01:26:23.020Z,0
2016-10-05T01:27:32.987Z,0
2016-10-05T01:28:43.250Z,0
2016-10-05T01:29:52.933Z,0
2016-10-05T01:31:02.915Z,0
2016-10-05T01:32:12.886Z,0
2016-10-05T01:33:23.160Z,0
2016-10-05T01:34:33.444Z,0
2016-10-05T01:35:43.723Z,0
2016-10-05T01:36:53.390Z,0
2016-10-05T01:38:03.681Z,0
2016-10-05T01:39:13.353Z,0
2016-10-05T01:40:23.640Z,0
2016-10-05T01:41:33.917Z,0
2016-10-05T01:42:44.204Z,0
2016-10-05T01:43:54.484Z,0
2016-10-05T01:45:04.771Z,0
2016-10-05T01:46:14.438Z,0
2016-10-05T01:47:24.110Z,0
2016-10-05T01:48:34.104Z,0
2016-10-05T01:49:43.768Z,0
2016-10-05T01:50:53.435Z,0
2016-10-05T01:52:03.731Z,0
2016-10-05T01:53:13.418Z,0
2016-10-05T01:54:23.386Z,0
2016-10-05T01:55:33.676Z,0
2016-10-05T01:56:43.956Z,0
2016-10-05T01:57:53.625Z,0
2016-10-05T01:59:03.629Z,0
2016-10-05T02:00:13.608Z,0
2016-10-05T02:01:23.890Z,0
2016-10-05T02:02:33.862Z,0
2016-10-05T02:03:44.151Z,0
2016-10-05T02:04:54.452Z,0
2016-10-05T02:06:04.738Z,0
2016-10-05T02:07:14.726Z,0
2016-10-05T02:08:25.006Z,0
2016-10-05T02:09:35.313Z,0
2016-10-05T02:10:45.295Z,0
2016-10-05T02:11:55.591Z,0
2016-10-05T02:13:05.890Z,0
2016-10-05T02:14:15.860Z,0
2016-10-05T02:15:26.157Z,0
2016-10-05T02:16:36.152Z,0
2016-10-05T02:17:46.437Z,0
2016-10-05T02:18:56.431Z,0
2016-10-05T02:20:06.394Z,0
2016-10-05T02:21:16.374Z,0
2016-10-05T02:22:26.356Z,0
2016-10-05T02:23:36.633Z,0
2016-10-05T02:24:46.617Z,0
2016-10-05T02:25:56.617Z,0
2016-10-05T02:27:06.609Z,0
2016-10-05T02:28:16.882Z,0
2016-10-05T02:29:27.174Z,0
2016-10-05T02:30:37.159Z,0
2016-10-05T02:31:47.464Z,0
2016-10-05T02:32:57.765Z,0
2016-10-05T02:34:07.738Z,0
2016-10-05T02:35:18.021Z,0
2016-10-05T02:36:28.307Z,0
2016-10-05T02:37:38.283Z,0
2016-10-05T02:38:48.264Z,0
2016-10-05T02:39:58.558Z,0
2016-10-05T02:41:08.238Z,0
2016-10-05T02:42:18.547Z,0
2016-10-05T02:43:28.203Z,0
2016-10-05T02:44:38.478Z,0
2016-10-05T02:45:48.462Z,0
2016-10-05T02:46:58.444Z,0
2016-10-05T02:48:08.117Z,0
2016-10-05T02:49:18.089Z,0
2016-10-05T02:50:28.367Z,0
2016-10-05T02:51:38.040Z,0
2016-10-05T02:52:48.035Z,0
2016-10-05T02:53:58.339Z,0
2016-10-05T02:55:08.008Z,0
2016-10-05T02:56:17.982Z,0
2016-10-05T02:57:28.272Z,0
2016-10-05T02:58:38.240Z,0
2016-10-05T02:59:47.905Z,0
2016-10-05T03:32:06.527Z,0
2016-10-05T03:33:16.804Z,0
2016-10-05T03:34:26.760Z,0
2016-10-05T03:35:37.040Z,0
2016-10-05T03:36:47.363Z,0
2016-10-05T03:37:57.326Z,0
2016-10-05T03:39:07.327Z,0
2016-10-05T03:40:17.603Z,0
2016-10-05T03:41:27.567Z,0
2016-10-05T03:42:37.840Z,0
2016-10-05T03:43:48.111Z,0
2016-10-05T03:44:58.396Z,0
2016-10-05T03:46:08.394Z,0
2016-10-05T03:47:18.679Z,0
2016-10-05T03:48:28.972Z,0
2016-10-05T03:49:39.247Z,0
2016-10-05T03:50:49.515Z,0
2016-10-05T03:51:59.823Z,0
2016-10-05T03:53:09.804Z,0
2016-10-05T03:54:19.474Z,0
2016-10-05T03:55:29.749Z,0
2016-10-05T03:56:40.039Z,0
2016-10-05T03:57:50.005Z,0
2016-10-05T03:59:00.291Z,0
2016-10-05T04:00:10.593Z,0
2016-10-05T04:01:20.876Z,0
2016-10-05T04:02:30.856Z,0
2016-10-05T04:03:41.143Z,0
2016-10-05T04:04:50.804Z,0
2016-10-05T04:06:01.087Z,0
2016-10-05T04:07:10.441Z,0
2016-10-05T04:08:20.725Z,0
2016-10-05T04:09:30.691Z,0
2016-10-05T04:10:40.363Z,0
2016-10-05T04:11:50.641Z,0
2016-10-05T04:13:00.957Z,0
2016-10-05T04:14:10.934Z,0
2016-10-05T04:15:20.924Z,0
2016-10-05T04:16:31.217Z,0
2016-10-05T04:17:41.504Z,0
2016-10-05T04:18:51.785Z,0
2016-10-05T04:20:02.068Z,0
2016-10-05T04:21:12.340Z,0
2016-10-05T04:22:22.624Z,0
2016-10-05T04:23:32.302Z,0
2016-10-05T04:24:42.603Z,0
2016-10-05T04:25:52.902Z,0
2016-10-05T04:27:02.557Z,4
2016-10-05T04:28:12.829Z,4
2016-10-05T04:29:23.124Z,0
2016-10-05T04:30:33.103Z,0
2016-10-05T04:31:43.070Z,4
2016-10-05T04:32:53.045Z,4
2016-10-05T04:34:03.022Z,4
2016-10-05T04:35:13.015Z,4
2016-10-05T04:36:23.316Z,4
2016-10-05T04:37:33.586Z,8
2016-10-05T04:38:43.260Z,8
2016-10-05T04:39:53.568Z,12
2016-10-05T04:41:03.225Z,16
2016-10-05T04:42:13.201Z,16
2016-10-05T04:43:23.480Z,20
2016-10-05T04:44:33.470Z,24
2016-10-05T04:45:43.772Z,32
2016-10-05T04:46:53.748Z,36
2016-10-05T04:48:03.710Z,44
2016-10-05T04:49:13.987Z,52
2016-10-05T04:50:24.268Z,60
2016-10-05T04:51:34.257Z,72
2016-10-05T04:52:44.555Z,84
2016-10-05T04:53:54.847Z,96
2016-10-05T04:55:04.815Z,108
2016-10-05T04:56:14.790Z,124
2016-10-05T04:57:24.762Z,140
2016-10-05T04:58:35.046Z,156
2016-10-05T04:59:45.330Z,180
2016-10-05T05:00:55.627Z,208
2016-10-05T05:02:05.609Z,228
2016-10-05T05:03:15.901Z,256
2016-10-05T05:04:25.877Z,284
2016-10-05T05:05:36.160Z,312
2016-10-05T05:06:46.435Z,336
2016-10-05T05:07:56.429Z,368
2016-10-05T05:09:06.405Z,400
2016-10-05T05:10:16.372Z,432
2016-10-05T05:11:26.647Z,464
2016-10-05T05:12:36.980Z,496
2016-10-05T05:13:47.267Z,528
2016-10-05T05:14:57.547Z,560
2016-10-05T05:16:07.510Z,592
2016-10-05T05:17:17.966Z,628
2016-10-05T05:18:28.261Z,664
2016-10-05T05:19:38.535Z,696
2016-10-05T05:20:48.830Z,728
2016-10-05T05:21:59.110Z,756
2016-10-05T05:23:09.413Z,788
2016-10-05T05:24:19.696Z,804
2016-10-05T05:25:29.987Z,852
2016-10-05T05:26:40.294Z,888
2016-10-05T05:27:50.267Z,924
2016-10-05T05:29:00.264Z,960
2016-10-05T05:30:10.544Z,992
2016-10-05T05:31:20.517Z,1024
2016-10-05T05:32:30.188Z,1068
2016-10-05T05:33:40.465Z,1128
2016-10-05T05:34:50.750Z,1224
2016-10-05T05:36:00.752Z,1324
2016-10-05T05:37:10.439Z,1412
2016-10-05T05:38:20.112Z,1408
2016-10-05T05:39:30.122Z,1404
2016-10-05T05:40:40.396Z,1436
2016-10-05T05:41:50.672Z,1400
2016-10-05T05:43:00.972Z,1320
2016-10-05T05:44:11.270Z,1264
2016-10-05T05:45:21.242Z,1360
2016-10-05T05:46:31.525Z,1292
2016-10-05T05:47:41.812Z,1304
2016-10-05T05:48:51.776Z,1356
2016-10-05T05:50:02.068Z,1456
2016-10-05T05:51:12.346Z,1632
2016-10-05T05:52:22.634Z,1652
2016-10-05T05:53:32.914Z,1752
2016-10-05T05:54:42.584Z,1752
2016-10-05T05:55:52.882Z,1820
2016-10-05T05:57:03.156Z,1756
2016-10-05T05:58:13.121Z,1552
2016-10-05T05:59:22.509Z,1772
2016-10-05T06:00:32.814Z,1500
2016-10-05T06:01:43.096Z,1580
2016-10-05T06:02:52.758Z,1600
2016-10-05T06:04:02.100Z,1988
2016-10-05T06:05:12.074Z,1844
2016-10-05T06:06:21.733Z,2056
2016-10-05T06:07:31.423Z,1836
2016-10-05T06:08:41.386Z,1772
2016-10-05T06:09:51.669Z,2104
2016-10-05T06:11:01.950Z,1968
2016-10-05T06:12:11.922Z,2304
2016-10-05T06:13:22.208Z,2380
2016-10-05T06:14:32.183Z,2432
2016-10-05T06:15:42.465Z,2476
2016-10-05T06:16:52.742Z,2480
2016-10-05T06:18:03.024Z,2508
2016-10-05T06:19:13.320Z,1752
2016-10-05T06:20:22.692Z,1708
2016-10-05T06:21:32.674Z,1844
2016-10-05T06:22:42.951Z,1868
2016-10-05T06:23:53.233Z,1936
2016-10-05T06:25:03.535Z,1928
2016-10-05T06:26:13.810Z,1924
2016-10-05T06:27:24.113Z,2004
2016-10-05T06:28:34.120Z,2108
2016-10-05T06:29:44.081Z,2096
2016-10-05T06:30:54.354Z,2052
2016-10-05T06:32:04.630Z,1980
2016-10-05T06:33:14.932Z,2000
2016-10-05T06:34:25.208Z,2840
2016-10-05T06:35:35.191Z,3120
2016-10-05T06:36:44.568Z,3096
2016-10-05T06:37:54.871Z,3052
2016-10-05T06:39:05.156Z,3056
2016-10-05T06:40:15.451Z,3240
2016-10-05T06:41:25.128Z,3240
2016-10-05T06:42:35.412Z,3284
2016-10-05T06:43:45.068Z,3324
2016-10-05T06:44:54.739Z,3356
2016-10-05T06:46:04.420Z,3388
2016-10-05T06:47:14.694Z,3428
2016-10-05T06:48:24.980Z,3456
2016-10-05T06:49:34.657Z,3496
2016-10-05T06:50:44.947Z,3532
2016-10-05T06:51:54.615Z,3572
2016-10-05T06:53:04.280Z,3612
2016-10-05T06:54:14.564Z,3652
2016-10-05T06:55:24.546Z,3684
2016-10-05T06:56:34.548Z,3744
2016-10-05T06:57:44.829Z,3876
2016-10-05T06:58:55.122Z,3616
2016-10-05T07:00:05.426Z,4084
2016-10-05T07:01:14.785Z,3000
2016-10-05T07:02:25.091Z,2400
2016-10-05T07:03:35.073Z,4040
2016-10-05T07:04:45.057Z,4056
2016-10-05T07:05:55.348Z,4088
2016-10-05T07:07:05.348Z,4148
2016-10-05T07:08:15.315Z,4164
2016-10-05T07:09:24.991Z,4156
2016-10-05T07:10:34.671Z,4192
2016-10-05T07:11:44.648Z,4208
2016-10-05T07:12:54.638Z,4244
2016-10-05T07:14:04.303Z,4288
2016-10-05T07:15:14.600Z,4292
2016-10-05T07:16:24.876Z,4320
2016-10-05T07:17:34.238Z,4344
2016-10-05T07:18:44.531Z,4396
2016-10-05T07:19:54.823Z,4448
2016-10-05T07:21:05.113Z,4496
2016-10-05T07:22:15.434Z,4508
2016-10-05T07:23:25.415Z,4552
2016-10-05T07:24:35.088Z,4592
2016-10-05T07:25:45.390Z,4640
2016-10-05T07:26:55.692Z,4692
2016-10-05T07:28:05.658Z,4720
2016-10-05T07:29:15.945Z,4756
2016-10-05T07:30:25.613Z,4812
2016-10-05T07:31:36.028Z,4884
2016-10-05T07:32:45.695Z,4860
2016-10-05T07:33:55.376Z,4888
2016-10-05T07:35:05.053Z,4948
2016-10-05T07:36:15.336Z,5036
2016-10-05T07:37:25.321Z,5096
2016-10-05T07:38:35.605Z,5160
2016-10-05T07:39:45.575Z,5152
2016-10-05T07:40:55.558Z,5228
2016-10-05T07:42:05.554Z,5272
2016-10-05T07:43:15.851Z,5276
2016-10-05T07:44:26.139Z,5328
2016-10-05T07:45:36.432Z,5372
2016-10-05T07:46:46.715Z,2616
2016-10-05T07:47:56.692Z,5532
2016-10-05T07:49:06.661Z,5632
2016-10-05T07:50:16.345Z,5692
2016-10-05T07:51:26.033Z,5684
2016-10-05T07:52:36.321Z,5652
2016-10-05T07:53:45.993Z,5684
2016-10-05T07:54:56.284Z,5708
2016-10-05T07:56:06.265Z,5756
2016-10-05T07:57:16.251Z,5864
2016-10-05T07:58:26.223Z,6180
2016-10-05T07:59:35.884Z,6492
2016-10-05T08:00:45.556Z,3660
2016-10-05T08:01:54.918Z,3124
2016-10-05T08:03:04.892Z,2848
2016-10-05T08:04:15.202Z,6144
2016-10-05T08:05:25.194Z,4672
2016-10-05T08:06:35.160Z,6600
2016-10-05T08:07:45.135Z,5080
2016-10-05T08:08:55.415Z,6432
2016-10-05T08:10:05.712Z,6704
2016-10-05T08:11:15.699Z,6648
2016-10-05T08:12:25.989Z,6708
2016-10-05T08:13:36.282Z,6608
2016-10-05T08:14:46.247Z,6704
2016-10-05T08:15:56.217Z,6768
2016-10-05T08:17:06.212Z,6780
2016-10-05T08:18:16.494Z,6776
2016-10-05T08:19:26.781Z,5712
2016-10-05T08:20:36.131Z,7092
2016-10-05T08:21:46.103Z,7236
2016-10-05T08:22:55.785Z,7364
2016-10-05T08:24:06.023Z,7680
2016-10-05T08:25:15.698Z,8204
2016-10-05T08:26:25.992Z,8452
2016-10-05T08:27:35.977Z,8224
2016-10-05T08:28:45.954Z,4312
2016-10-05T08:29:56.285Z,7112
2016-10-05T08:31:06.590Z,4308
2016-10-05T08:32:16.918Z,8468
2016-10-05T08:33:27.256Z,8700
2016-10-05T08:34:38.913Z,5284
2016-10-05T08:35:49.189Z,8908
2016-10-05T08:36:59.530Z,8960
2016-10-05T08:38:09.887Z,5332
2016-10-05T08:39:19.891Z,9756
2016-10-05T08:40:29.954Z,5912
2016-10-05T08:41:39.973Z,10572
2016-10-05T08:42:50.009Z,10560
2016-10-05T08:44:00.349Z,6140
2016-10-05T08:45:10.375Z,5928
2016-10-05T08:46:20.752Z,5800
2016-10-05T08:47:31.102Z,5676
2016-10-05T08:48:40.793Z,5436
2016-10-05T08:49:51.157Z,4444
2016-10-05T08:51:01.502Z,4160
2016-10-05T08:52:11.860Z,4668
2016-10-05T08:53:22.123Z,4676
2016-10-05T08:54:32.145Z,4160
2016-10-05T08:55:42.688Z,3952
2016-10-05T08:56:52.717Z,3748
2016-10-05T08:58:02.787Z,5296
2016-10-05T08:59:13.246Z,8508
2016-10-05T09:00:23.692Z,9148
2016-10-05T09:01:34.120Z,7424
2016-10-05T09:02:44.163Z,9460
2016-10-05T09:03:54.188Z,4868
2016-10-05T09:05:04.772Z,7496
2016-10-05T09:06:15.158Z,4428
2016-10-05T09:07:25.626Z,8520
2016-10-05T09:08:35.673Z,8920
2016-10-05T09:09:45.703Z,4420
2016-10-05T09:10:55.738Z,10240
2016-10-05T09:12:06.111Z,4900
2016-10-05T09:13:16.158Z,9832
2016-10-05T09:14:26.251Z,5500
2016-10-05T09:15:36.538Z,5508
2016-10-05T09:16:46.916Z,6512
2016-10-05T09:17:56.630Z,11340
2016-10-05T09:19:07.016Z,4784
2016-10-05T09:20:17.433Z,3944
2016-10-05T09:21:28.094Z,4264
2016-10-05T09:22:38.435Z,4188
2016-10-05T09:23:48.805Z,7640
2016-10-05T09:24:58.850Z,9580
2016-10-05T09:26:08.600Z,5852
2016-10-05T09:27:18.990Z,7984
2016-10-05T09:28:29.616Z,4540
2016-10-05T09:29:39.894Z,8440
2016-10-05T09:30:50.234Z,8520
2016-10-05T09:32:00.276Z,8592
2016-10-05T09:33:10.897Z,8644
2016-10-05T09:34:20.971Z,8800
2016-10-05T09:35:31.254Z,9488
2016-10-05T09:36:41.297Z,9932
2016-10-05T09:37:51.682Z,10388
2016-10-05T09:39:02.020Z,9576
2016-10-05T09:40:11.828Z,10548
2016-10-05T09:41:22.328Z,4552
2016-10-05T09:42:32.380Z,8360
2016-10-05T09:43:42.665Z,10312
2016-10-05T09:44:52.630Z,5180
2016-10-05T09:46:03.249Z,11452
2016-10-05T09:47:13.276Z,11240
2016-10-05T09:48:23.346Z,5984
2016-10-05T09:49:33.777Z,5664
2016-10-05T09:50:43.859Z,6632
2016-10-05T09:51:53.893Z,11460
2016-10-05T09:53:04.162Z,5072
2016-10-05T09:54:14.557Z,4940
2016-10-05T09:55:24.593Z,4980
2016-10-05T09:56:34.688Z,4608
2016-10-05T09:57:45.115Z,3700
2016-10-05T09:58:55.194Z,3624
2016-10-05T10:00:04.927Z,3532
2016-10-05T10:01:14.874Z,4200
2016-10-05T10:02:25.227Z,3992
2016-10-05T10:03:35.855Z,9936
2016-10-05T10:04:46.126Z,10040
2016-10-05T10:05:56.482Z,10300
2016-10-05T10:07:06.839Z,10016
2016-10-05T10:08:16.231Z,11644
2016-10-05T10:09:26.583Z,12500
2016-10-05T10:10:36.932Z,12924
2016-10-05T10:11:47.260Z,6048
2016-10-05T10:12:57.628Z,5224
2016-10-05T10:14:07.985Z,4572
2016-10-05T10:15:18.349Z,4456
2016-10-05T10:16:28.684Z,4780
2016-10-05T10:17:38.688Z,5076
2016-10-05T10:18:48.392Z,5624
2016-10-05T10:19:58.728Z,5680
2016-10-05T10:21:09.070Z,5548
2016-10-05T10:22:19.083Z,5308
2016-10-05T10:23:29.426Z,4588
2016-10-05T10:24:39.769Z,4184
2016-10-05T10:25:49.769Z,4312
2016-10-05T10:26:59.780Z,4636
2016-10-05T10:28:10.095Z,4716
2016-10-05T10:29:20.132Z,4836
2016-10-05T10:30:29.547Z,5324
2016-10-05T10:31:38.916Z,5780
2016-10-05T10:32:48.945Z,5872
2016-10-05T10:33:59.271Z,5992
2016-10-05T10:35:08.993Z,6168
2016-10-05T10:36:19.325Z,6744
2016-10-05T10:37:29.654Z,7596
2016-10-05T10:38:39.683Z,13944
2016-10-05T10:39:50.029Z,13684
2016-10-05T10:41:00.039Z,13860
2016-10-05T10:42:10.407Z,10836
2016-10-05T10:43:20.739Z,7132
2016-10-05T10:44:30.764Z,8668
2016-10-05T10:45:41.093Z,9452
2016-10-05T10:46:51.441Z,5176
2016-10-05T10:48:01.467Z,4660
2016-10-05T10:49:11.520Z,4472
2016-10-05T10:50:21.850Z,4468
2016-10-05T10:51:32.196Z,4920
2016-10-05T10:52:42.523Z,5388
2016-10-05T10:53:52.860Z,5552
2016-10-05T10:55:03.193Z,5716
2016-10-05T10:56:13.510Z,5832
2016-10-05T10:57:23.555Z,5972
2016-10-05T10:58:33.886Z,6904
2016-10-05T10:59:43.907Z,8092
2016-10-05T11:00:54.252Z,7344
2016-10-05T11:02:04.588Z,8044
2016-10-05T11:03:14.604Z,9128
2016-10-05T11:04:24.936Z,6840
2016-10-05T11:05:35.287Z,6232
2016-10-05T11:06:45.307Z,6292
2016-10-05T11:07:55.649Z,6420
2016-10-05T11:09:05.646Z,6324
2016-10-05T11:10:15.679Z,6036
2016-10-05T11:11:25.932Z,6436
2016-10-05T11:12:35.960Z,6452
2016-10-05T11:13:45.985Z,6888
2016-10-05T11:14:55.999Z,9452
2016-10-05T11:16:05.727Z,7652
2016-10-05T11:17:16.062Z,8164
2016-10-05T11:18:26.392Z,6720
2016-10-05T11:19:36.738Z,6716
2016-10-05T11:20:47.074Z,5888
2016-10-05T11:21:57.409Z,5712
2016-10-05T11:23:07.735Z,5692
2016-10-05T11:24:17.763Z,5612
2016-10-05T11:25:27.165Z,6056
2016-10-05T11:26:37.164Z,6392
2016-10-05T11:27:47.171Z,6596
2016-10-05T11:28:57.725Z,6244
2016-10-05T11:30:08.045Z,5800
2016-10-05T11:31:18.079Z,5544
2016-10-05T11:32:28.095Z,6148
2016-10-05T11:33:38.421Z,6680
2016-10-05T11:34:48.429Z,6276
2016-10-05T11:35:58.775Z,6468
2016-10-05T11:37:08.769Z,6800
2016-10-05T11:38:19.105Z,6928
2016-10-05T11:39:29.454Z,7096
2016-10-05T11:40:39.780Z,7404
2016-10-05T11:41:50.110Z,7276
2016-10-05T11:42:59.814Z,6640
2016-10-05T11:44:09.837Z,6324
2016-10-05T11:45:19.859Z,6352
2016-10-05T11:46:30.226Z,6344
2016-10-05T11:47:39.933Z,9604
2016-10-05T11:48:49.973Z,9688
2016-10-05T11:50:00.322Z,6096
2016-10-05T11:51:10.663Z,5908
2016-10-05T11:52:20.995Z,6032
2016-10-05T11:53:31.325Z,6128
2016-10-05T11:54:41.344Z,6272
2016-10-05T11:55:51.672Z,5944
2016-10-05T11:57:02.024Z,6216
2016-10-05T11:58:12.044Z,6360
2016-10-05T11:59:22.382Z,6944
2016-10-05T12:00:32.403Z,10628
2016-10-05T12:01:42.747Z,6260
2016-10-05T12:02:53.076Z,6520
2016-10-05T12:04:03.422Z,6768
2016-10-05T12:05:13.451Z,6096
2016-10-05T12:06:23.793Z,13056
2016-10-05T12:07:34.148Z,13276
2016-10-05T12:08:44.467Z,13672
2016-10-05T12:09:54.224Z,13588
2016-10-05T12:11:04.534Z,5720
2016-10-05T12:12:14.548Z,6112
2016-10-05T12:13:24.860Z,5072
2016-10-05T12:14:34.571Z,4892
2016-10-05T12:15:44.891Z,4808
2016-10-05T12:16:54.915Z,4884
2016-10-05T12:18:04.637Z,5412
2016-10-05T12:19:14.985Z,7720
2016-10-05T12:20:24.615Z,6312
2016-10-05T12:21:34.939Z,6104
2016-10-05T12:22:45.276Z,5980
2016-10-05T12:23:55.617Z,10384
2016-10-05T12:25:05.951Z,6008
2016-10-05T12:26:15.668Z,5324
2016-10-05T12:27:25.711Z,5440
2016-10-05T12:28:35.414Z,5716
2016-10-05T12:29:45.447Z,5612
2016-10-05T12:30:55.798Z,10640
2016-10-05T12:32:06.135Z,3836
2016-10-05T12:33:16.196Z,3236
2016-10-05T12:34:25.913Z,3176
2016-10-05T12:35:36.257Z,3440
2016-10-05T12:36:45.977Z,3864
2016-10-05T12:37:56.322Z,4308
2016-10-05T12:39:06.674Z,4520
2016-10-05T12:40:16.688Z,4828
2016-10-05T12:41:26.997Z,5116
2016-10-05T12:42:36.971Z,11412
2016-10-05T12:43:47.008Z,11256
2016-10-05T12:44:57.350Z,11308
2016-10-05T12:46:07.711Z,11640
2016-10-05T12:47:17.742Z,11628
2016-10-05T12:48:27.774Z,10780
2016-10-05T12:49:38.119Z,5788
2016-10-05T12:50:48.690Z,5692
2016-10-05T12:51:58.741Z,8528
2016-10-05T12:53:09.116Z,6448
2016-10-05T12:54:19.154Z,6068
2016-10-05T12:55:29.495Z,11204
2016-10-05T12:56:39.817Z,11532
2016-10-05T12:57:50.154Z,11228
2016-10-05T12:59:00.490Z,10268
2016-10-05T13:00:10.528Z,4956
2016-10-05T13:01:20.862Z,4260
2016-10-05T13:02:31.204Z,2828
2016-10-05T13:03:41.226Z,2360
2016-10-05T13:04:51.546Z,2308
2016-10-05T13:06:01.248Z,2072
2016-10-05T13:07:11.560Z,1620
2016-10-05T13:08:21.585Z,1392
2016-10-05T13:09:31.932Z,1500
2016-10-05T13:10:41.965Z,1868
2016-10-05T13:11:51.354Z,1992
2016-10-05T13:13:01.671Z,2000
2016-10-05T13:14:11.724Z,2140
2016-10-05T13:15:21.760Z,2408
2016-10-05T13:16:32.106Z,2864
2016-10-05T13:17:42.446Z,3388
2016-10-05T13:18:52.786Z,3616
2016-10-05T13:20:03.147Z,3672
2016-10-05T13:21:13.167Z,3768
2016-10-05T13:22:22.880Z,3896
2016-10-05T13:23:32.623Z,4024
2016-10-05T13:24:42.318Z,3572
2016-10-05T13:25:52.327Z,2988
2016-10-05T13:27:02.668Z,2528
2016-10-05T13:28:12.997Z,2012
2016-10-05T13:29:22.725Z,1556
2016-10-05T13:30:32.741Z,1196
2016-10-05T13:31:43.078Z,916
2016-10-05T13:32:53.103Z,768
2016-10-05T13:34:02.794Z,776
2016-10-05T13:35:12.804Z,900
2016-10-05T13:36:23.106Z,1000
2016-10-05T13:37:33.428Z,1300
2016-10-05T13:38:43.774Z,1820
2016-10-05T13:39:53.800Z,2224
2016-10-05T13:41:04.105Z,2344
2016-10-05T13:42:14.427Z,2320
2016-10-05T13:43:24.757Z,2688
2016-10-05T13:44:35.085Z,3092
2016-10-05T13:45:45.106Z,3484
2016-10-05T13:46:55.110Z,4396
2016-10-05T13:48:05.114Z,3944
2016-10-05T13:49:15.117Z,3996
2016-10-05T13:50:25.460Z,3988
2016-10-05T13:51:35.795Z,3896
2016-10-05T13:52:45.809Z,3848
2016-10-05T13:53:55.488Z,3852
2016-10-05T13:55:05.815Z,4152
2016-10-05T13:56:15.856Z,4712
2016-10-05T13:57:26.203Z,4860
2016-10-05T13:58:36.518Z,5344
2016-10-05T13:59:46.534Z,3760
2016-10-05T14:00:56.554Z,3696
2016-10-05T14:02:06.883Z,4028
2016-10-05T14:03:17.218Z,4728
2016-10-05T14:04:27.233Z,4896
2016-10-05T14:05:37.232Z,4144
2016-10-05T14:06:47.238Z,3360
2016-10-05T14:07:57.547Z,2916
2016-10-05T14:09:07.877Z,2764
2016-10-05T14:10:17.888Z,3204
2016-10-05T14:11:27.886Z,2760
2016-10-05T14:12:38.425Z,2228
2016-10-05T14:13:48.726Z,1828
2016-10-05T14:14:58.751Z,1468
2016-10-05T14:16:08.769Z,1156
2016-10-05T14:17:18.468Z,1032
2016-10-05T14:18:28.807Z,1048
2016-10-05T14:19:39.148Z,1192
2016-10-05T14:20:49.482Z,1244
2016-10-05T14:21:59.479Z,1248
2016-10-05T14:23:09.483Z,1260
2016-10-05T14:24:19.795Z,1424
2016-10-05T14:25:29.838Z,1680
2016-10-05T14:26:40.157Z,1928
2016-10-05T14:27:50.178Z,2060
2016-10-05T14:29:00.199Z,2124
2016-10-05T14:30:09.899Z,2352
2016-10-05T14:31:19.605Z,2624
2016-10-05T14:32:29.928Z,2732
2016-10-05T14:33:39.631Z,2664
2016-10-05T14:34:49.669Z,2576
2016-10-05T14:35:59.988Z,2484
2016-10-05T14:37:10.341Z,2700
2016-10-05T14:38:20.375Z,3408
2016-10-05T14:39:30.399Z,3092
2016-10-05T14:40:40.733Z,2668
2016-10-05T14:41:50.735Z,2844
2016-10-05T14:43:00.773Z,3184
2016-10-05T14:44:10.788Z,4288
2016-10-05T14:45:21.118Z,4108
2016-10-05T14:46:31.129Z,3956
2016-10-05T14:47:41.150Z,3584
2016-10-05T14:48:51.178Z,3316
2016-10-05T14:50:01.225Z,3188
2016-10-05T14:51:11.573Z,3228
2016-10-05T14:52:21.894Z,3436
2016-10-05T14:53:31.916Z,3524
2016-10-05T14:54:41.927Z,3756
2016-10-05T14:55:52.261Z,3536
2016-10-05T14:57:02.252Z,3252
2016-10-05T14:58:12.241Z,3152
2016-10-05T14:59:22.573Z,3204
2016-10-05T15:00:32.578Z,3112
2016-10-05T15:01:42.917Z,2984
2016-10-05T15:02:53.262Z,2588
2016-10-05T15:04:02.965Z,2172
2016-10-05T15:05:12.675Z,2128
2016-10-05T15:06:22.993Z,2064
2016-10-05T15:07:32.684Z,1996
2016-10-05T15:08:42.701Z,1916
2016-10-05T15:09:52.718Z,1824
2016-10-05T15:11:02.741Z,1712
2016-10-05T15:12:13.058Z,1580
2016-10-05T15:13:23.390Z,1460
2016-10-05T15:14:33.416Z,1356
2016-10-05T15:15:43.432Z,1268
2016-10-05T15:16:53.459Z,1196
2016-10-05T15:18:03.485Z,1132
2016-10-05T15:19:13.824Z,1080
2016-10-05T15:20:23.849Z,996
2016-10-05T15:21:34.175Z,872
2016-10-05T15:22:44.532Z,720
2016-10-05T15:23:54.879Z,596
2016-10-05T15:25:04.917Z,520
2016-10-05T15:26:15.240Z,528
2016-10-05T15:27:25.260Z,548
2016-10-05T15:28:35.590Z,532
2016-10-05T15:29:45.932Z,532
2016-10-05T15:30:56.244Z,548
2016-10-05T15:32:06.585Z,520
2016-10-05T15:33:15.955Z,468
2016-10-05T15:34:26.279Z,416
2016-10-05T15:35:36.288Z,352
2016-10-05T15:36:46.583Z,312
2016-10-05T15:37:56.919Z,328
2016-10-05T15:39:07.244Z,396
2016-10-05T15:40:17.570Z,500
2016-10-05T15:41:27.890Z,540
2016-10-05T15:42:37.899Z,544
2016-10-05T15:43:47.905Z,528
2016-10-05T15:44:58.202Z,496
2016-10-05T15:46:07.888Z,432
2016-10-05T15:47:18.234Z,376
2016-10-05T15:48:28.269Z,328
2016-10-05T15:49:38.591Z,280
2016-10-05T15:50:48.912Z,244
2016-10-05T15:51:58.914Z,228
2016-10-05T15:53:09.238Z,212
2016-10-05T15:54:19.258Z,212
2016-10-05T15:55:29.589Z,248
2016-10-05T15:56:39.918Z,288
2016-10-05T15:57:49.926Z,328
2016-10-05T15:59:00.255Z,332
2016-10-05T16:00:10.590Z,316
2016-10-05T16:01:20.910Z,292
2016-10-05T16:02:30.933Z,268
2016-10-05T16:03:40.953Z,252
2016-10-05T16:04:51.445Z,232
2016-10-05T16:06:01.770Z,220
2016-10-05T16:07:11.686Z,208
2016-10-05T16:08:22.022Z,192
2016-10-05T16:09:32.065Z,180
2016-10-05T16:10:42.411Z,172
2016-10-05T16:11:52.432Z,160
2016-10-05T16:13:02.429Z,156
2016-10-05T16:14:12.140Z,144
2016-10-05T16:15:22.169Z,136
2016-10-05T16:16:32.510Z,132
2016-10-05T16:17:42.514Z,124
2016-10-05T16:18:52.544Z,116
2016-10-05T16:20:02.867Z,108
2016-10-05T16:21:12.896Z,104
2016-10-05T16:22:23.205Z,92
2016-10-05T16:23:33.562Z,88
2016-10-05T16:24:43.611Z,80
2016-10-05T16:25:53.932Z,72
2016-10-05T16:27:04.257Z,68
2016-10-05T16:28:14.268Z,60
2016-10-05T16:29:24.618Z,52
2016-10-05T16:30:34.943Z,48
2016-10-05T16:31:45.281Z,40
2016-10-05T16:32:55.602Z,36